createdAt,value
2018-09-20T00:01:46.471Z,17.77
2018-09-20T00:04:16.908Z,14.97
2018-09-20T00:06:47.239Z,15.37
2018-09-20T00:09:17.675Z,17.03
2018-09-20T00:11:48.104Z,14.03
2018-09-20T00:14:18.598Z,14.83
2018-09-20T00:16:49.291Z,16.30
2018-09-20T00:19:19.870Z,17.93
2018-09-20T00:21:50.217Z,13.13
2018-09-20T00:24:20.749Z,11.17
2018-09-20T00:26:51.289Z,14.90
2018-09-20T00:29:21.877Z,15.77
2018-09-20T00:31:52.551Z,14.47
2018-09-20T00:34:23.222Z,14.33
2018-09-20T00:36:53.790Z,12.27
2018-09-20T00:39:24.277Z,11.97
2018-09-20T00:41:54.710Z,19.80
2018-09-20T00:44:26.371Z,17.13
2018-09-20T00:46:56.876Z,19.10
2018-09-20T00:49:27.361Z,14.80
2018-09-20T00:51:57.893Z,14.73
2018-09-20T00:54:28.376Z,16.40
2018-09-20T00:56:58.840Z,14.23
2018-09-20T00:59:29.367Z,13.73
2018-09-20T01:01:59.798Z,14.50
2018-09-20T01:04:30.280Z,15.00
2018-09-20T01:07:00.671Z,14.70
2018-09-20T01:09:31.731Z,15.40
2018-09-20T01:12:02.239Z,16.07
2018-09-20T01:14:32.764Z,16.47
2018-09-20T01:17:03.354Z,19.43
2018-09-20T01:19:33.831Z,14.33
2018-09-20T01:22:04.298Z,17.13
2018-09-20T01:24:34.836Z,19.10
2018-09-20T01:27:05.314Z,18.63
2018-09-20T01:29:35.775Z,16.03
2018-09-20T01:32:07.281Z,16.50
2018-09-20T01:34:37.800Z,16.70
2018-09-20T01:37:08.401Z,17.73
2018-09-20T01:39:38.985Z,17.10
2018-09-20T01:42:09.482Z,15.77
2018-09-20T01:44:39.924Z,17.63
2018-09-20T01:47:10.399Z,18.57
2018-09-20T01:49:41.725Z,14.80
2018-09-20T01:52:12.142Z,14.67
2018-09-20T01:54:42.719Z,14.23
2018-09-20T01:57:13.160Z,18.10
2018-09-20T01:59:43.609Z,18.53
2018-09-20T02:02:14.094Z,19.67
2018-09-20T02:04:44.509Z,19.10
2018-09-20T02:07:14.962Z,14.77
2018-09-20T02:09:45.488Z,16.40
2018-09-20T02:12:15.994Z,18.90
2018-09-20T02:14:49.179Z,18.50
2018-09-20T02:17:19.750Z,13.93
2018-09-20T02:19:50.296Z,15.00
2018-09-20T02:22:20.777Z,15.77
2018-09-20T02:24:51.359Z,15.37
2018-09-20T02:27:21.858Z,15.67
2018-09-20T02:29:52.287Z,17.23
2018-09-20T02:32:22.748Z,20.93
2018-09-20T02:34:53.029Z,16.63
2018-09-20T02:37:23.416Z,15.60
2018-09-20T02:39:54.357Z,16.87
2018-09-20T02:42:24.728Z,21.37
2018-09-20T02:44:55.198Z,18.83
2018-09-20T02:47:25.725Z,22.37
2018-09-20T02:49:56.351Z,17.10
2018-09-20T02:52:26.886Z,20.93
2018-09-20T02:54:57.525Z,18.07
2018-09-20T02:57:27.683Z,19.83
2018-09-20T02:59:58.113Z,20.50
2018-09-20T03:02:28.627Z,18.77
2018-09-20T03:04:59.106Z,18.93
2018-09-20T03:07:29.604Z,22.20
2018-09-20T03:10:00.053Z,19.13
2018-09-20T03:12:30.482Z,17.53
2018-09-20T03:15:00.976Z,17.80
2018-09-20T03:17:31.435Z,17.33
2018-09-20T03:20:01.894Z,19.57
2018-09-20T03:22:32.354Z,18.03
2018-09-20T03:25:02.731Z,25.80
2018-09-20T03:27:34.112Z,19.57
2018-09-20T03:30:04.663Z,23.73
2018-09-20T03:32:35.269Z,25.87
2018-09-20T03:35:06.175Z,24.37
2018-09-20T03:37:36.603Z,27.73
2018-09-20T03:40:07.063Z,25.80
2018-09-20T03:42:37.505Z,26.70
2018-09-20T03:45:07.980Z,25.27
2018-09-20T03:47:38.437Z,27.53
2018-09-20T03:50:09.156Z,24.70
2018-09-20T03:52:39.693Z,31.57
2018-09-20T03:55:10.190Z,30.27
2018-09-20T03:57:40.715Z,29.30
2018-09-20T04:00:11.326Z,26.97
2018-09-20T04:02:41.676Z,31.87
2018-09-20T04:05:12.129Z,28.87
2018-09-20T04:07:42.600Z,28.07
2018-09-20T04:10:13.268Z,26.47
2018-09-20T04:12:43.782Z,26.93
2018-09-20T04:15:14.271Z,34.27
2018-09-20T04:17:44.818Z,30.20
2018-09-20T04:20:15.260Z,25.47
2018-09-20T04:22:45.671Z,26.73
2018-09-20T04:25:16.446Z,24.27
2018-09-20T04:27:48.016Z,27.37
2018-09-20T04:30:18.501Z,30.20
2018-09-20T04:32:48.996Z,29.77
2018-09-20T04:35:22.707Z,28.37
2018-09-20T04:37:53.192Z,29.40
2018-09-20T04:40:23.727Z,24.33
2018-09-20T04:42:54.277Z,27.53
2018-09-20T04:45:24.745Z,25.13
2018-09-20T04:47:55.396Z,23.53
2018-09-20T04:50:25.882Z,27.00
2018-09-20T04:52:56.040Z,28.40
2018-09-20T04:55:26.599Z,24.57
2018-09-20T04:57:56.837Z,24.67
2018-09-20T05:00:27.006Z,23.93
2018-09-20T05:02:57.204Z,23.20
2018-09-20T05:05:27.473Z,23.57
2018-09-20T05:07:58.671Z,23.60
2018-09-20T05:10:28.861Z,23.03
2018-09-20T05:12:59.131Z,28.37
2018-09-20T05:15:29.451Z,25.87
2018-09-20T05:17:59.639Z,25.27
2018-09-20T05:20:30.231Z,26.77
2018-09-20T05:23:00.708Z,31.00
2018-09-20T05:25:31.240Z,25.20
2018-09-20T05:28:02.555Z,24.43
2018-09-20T05:30:33.053Z,23.50
2018-09-20T05:33:03.493Z,26.33
2018-09-20T05:35:34.119Z,25.20
2018-09-20T05:38:05.300Z,30.33
2018-09-20T05:40:36.204Z,23.70
2018-09-20T05:43:06.783Z,26.07
2018-09-20T05:45:37.431Z,25.93
2018-09-20T05:48:08.314Z,26.07
2018-09-20T05:50:38.887Z,25.83
2018-09-20T05:53:09.602Z,24.63
2018-09-20T05:55:40.188Z,25.70
2018-09-20T05:58:10.624Z,25.43
2018-09-20T06:00:48.396Z,25.77
2018-09-20T06:03:18.899Z,27.33
2018-09-20T06:05:49.498Z,27.60
2018-09-20T06:08:19.973Z,25.50
2018-09-20T06:10:50.639Z,25.70
2018-09-20T06:13:21.193Z,26.23
2018-09-20T06:15:51.487Z,26.27
2018-09-20T06:18:21.803Z,25.17
2018-09-20T06:20:52.049Z,24.97
2018-09-20T06:23:22.222Z,24.73
2018-09-20T06:25:55.318Z,23.97
2018-09-20T06:28:28.412Z,26.50
2018-09-20T06:31:01.833Z,26.87
2018-09-20T06:33:35.871Z,27.33
2018-09-20T06:36:10.264Z,26.47
2018-09-20T06:38:40.507Z,26.53
2018-09-20T06:41:10.916Z,25.60
2018-09-20T06:43:41.076Z,24.93
2018-09-20T06:46:11.253Z,27.40
2018-09-20T06:48:41.858Z,25.10
2018-09-20T06:51:13.856Z,25.37
2018-09-20T06:53:44.637Z,26.00
2018-09-20T06:56:15.962Z,24.17
2018-09-20T06:58:46.627Z,25.40
2018-09-20T07:01:18.035Z,24.50
2018-09-20T07:03:49.232Z,24.63
2018-09-20T07:06:20.175Z,24.63
2018-09-20T07:08:50.958Z,24.93
2018-09-20T07:11:21.691Z,26.93
2018-09-20T07:13:52.537Z,24.07
2018-09-20T07:16:23.462Z,23.73
2018-09-20T07:18:54.072Z,23.83
2018-09-20T07:21:24.782Z,24.37
2018-09-20T07:23:56.416Z,23.83
2018-09-20T07:26:27.158Z,22.67
2018-09-20T07:28:57.836Z,22.60
2018-09-20T07:31:29.065Z,23.00
2018-09-20T07:34:00.802Z,22.43
2018-09-20T07:36:31.273Z,24.50
2018-09-20T07:39:05.706Z,21.03
2018-09-20T07:41:36.309Z,21.17
2018-09-20T07:44:08.277Z,22.90
2018-09-20T07:46:39.054Z,21.90
2018-09-20T07:49:10.481Z,20.07
2018-09-20T07:51:41.212Z,20.63
2018-09-20T07:54:11.767Z,26.23
2018-09-20T07:56:42.570Z,21.27
2018-09-20T07:59:13.548Z,22.70
2018-09-20T08:01:44.387Z,26.47
2018-09-20T08:04:14.921Z,23.83
2018-09-20T08:06:49.888Z,22.63
2018-09-20T08:09:21.291Z,23.07
2018-09-20T08:11:51.976Z,22.10
2018-09-20T08:14:22.794Z,20.33
2018-09-20T08:16:53.370Z,22.97
2018-09-20T08:19:24.378Z,18.77
2018-09-20T08:21:56.109Z,20.73
2018-09-20T08:24:26.806Z,19.23
2018-09-20T08:26:57.507Z,21.67
2018-09-20T08:29:27.956Z,20.13
2018-09-20T08:31:58.622Z,19.10
2018-09-20T08:34:29.051Z,18.10
2018-09-20T08:36:59.593Z,19.30
2018-09-20T08:39:30.147Z,17.27
2018-09-20T08:42:00.636Z,17.57
2018-09-20T08:44:31.151Z,20.13
2018-09-20T08:47:01.648Z,17.87
2018-09-20T08:49:32.302Z,15.57
2018-09-20T08:52:02.898Z,15.47
2018-09-20T08:54:36.063Z,16.53
2018-09-20T08:57:09.562Z,19.10
2018-09-20T08:59:40.235Z,14.87
2018-09-20T09:02:10.672Z,15.50
2018-09-20T09:04:41.240Z,15.97
2018-09-20T09:07:11.810Z,17.20
2018-09-20T09:09:42.400Z,14.27
2018-09-20T09:12:12.843Z,13.53
2018-09-20T09:14:43.330Z,13.63
2018-09-20T09:17:14.064Z,16.53
2018-09-20T09:19:44.807Z,14.20
2018-09-20T09:22:16.285Z,12.57
2018-09-20T09:24:48.232Z,12.87
2018-09-20T09:27:19.990Z,14.80
2018-09-20T09:29:51.125Z,13.03
2018-09-20T09:32:22.354Z,12.30
2018-09-20T09:34:52.855Z,13.73
2018-09-20T09:37:23.352Z,16.60
2018-09-20T09:39:54.141Z,14.37
2018-09-20T09:42:25.643Z,11.77
2018-09-20T09:44:56.206Z,12.70
2018-09-20T09:47:26.667Z,11.03
2018-09-20T09:49:57.290Z,11.03
2018-09-20T09:52:27.937Z,13.57
2018-09-20T09:54:58.887Z,10.40
2018-09-20T09:57:29.435Z,11.33
2018-09-20T10:00:00.731Z,10.47
2018-09-20T10:02:31.703Z,9.97
2018-09-20T10:05:02.233Z,10.33
2018-09-20T10:07:32.869Z,12.10
2018-09-20T10:10:03.470Z,9.23
2018-09-20T10:12:33.888Z,9.50
2018-09-20T10:15:05.330Z,9.77
2018-09-20T10:17:36.292Z,8.87
2018-09-20T10:20:06.923Z,9.70
2018-09-20T10:22:38.263Z,7.90
2018-09-20T10:25:08.864Z,8.00
2018-09-20T10:27:39.517Z,9.43
2018-09-20T10:30:10.251Z,9.20
2018-09-20T10:32:40.598Z,9.23
2018-09-20T10:35:39.180Z,8.90
2018-09-20T10:38:09.782Z,8.43
2018-09-20T10:40:40.404Z,13.27
2018-09-20T10:43:11.607Z,8.60
2018-09-20T10:45:42.328Z,12.37
2018-09-20T10:48:14.200Z,9.80
2018-09-20T10:50:45.625Z,8.93
2018-09-20T10:53:16.953Z,8.73
2018-09-20T10:55:47.643Z,8.80
2018-09-20T10:58:18.279Z,12.13
2018-09-20T11:00:49.312Z,25.37
2018-09-20T11:03:20.280Z,9.00
2018-09-20T11:05:50.948Z,7.97
2018-09-20T11:08:21.556Z,13.93
2018-09-20T11:10:52.156Z,7.97
2018-09-20T11:13:22.676Z,7.43
2018-09-20T11:15:53.431Z,9.17
2018-09-20T11:18:24.570Z,9.37
2018-09-20T11:20:55.255Z,10.13
2018-09-20T11:23:25.974Z,9.37
2018-09-20T11:25:57.096Z,8.30
2018-09-20T11:28:27.852Z,8.80
2018-09-20T11:30:58.426Z,7.17
2018-09-20T11:33:28.980Z,6.70
2018-09-20T11:35:59.844Z,7.30
2018-09-20T11:38:30.949Z,10.70
2018-09-20T11:41:02.141Z,8.70
2018-09-20T11:43:32.703Z,9.50
2018-09-20T11:46:03.411Z,7.20
2018-09-20T11:48:34.674Z,8.03
2018-09-20T11:51:05.380Z,8.40
2018-09-20T11:53:36.406Z,9.97
2018-09-20T11:56:07.531Z,8.93
2018-09-20T11:58:38.478Z,9.27
2018-09-20T12:01:09.508Z,7.40
2018-09-20T12:03:41.277Z,7.23
2018-09-20T12:06:11.776Z,7.03
2018-09-20T12:08:42.583Z,7.50
2018-09-20T12:11:13.224Z,7.17
2018-09-20T12:13:44.140Z,7.10
2018-09-20T12:16:15.606Z,5.97
2018-09-20T12:18:47.075Z,8.27
2018-09-20T12:21:17.894Z,8.00
2018-09-20T12:23:48.554Z,9.23
2018-09-20T12:26:19.228Z,7.70
2018-09-20T12:28:49.738Z,7.33
2018-09-20T12:31:20.438Z,8.40
2018-09-20T12:33:52.294Z,8.00
2018-09-20T12:36:23.201Z,8.03
2018-09-20T12:38:53.820Z,7.17
2018-09-20T12:41:24.668Z,8.43
2018-09-20T12:43:55.634Z,9.73
2018-09-20T12:46:26.566Z,7.30
2018-09-20T12:48:57.568Z,6.67
2018-09-20T12:51:27.996Z,7.90
2018-09-20T12:53:58.679Z,8.53
2018-09-20T12:56:30.850Z,8.93
2018-09-20T12:59:01.809Z,10.23
2018-09-20T13:01:32.531Z,5.93
2018-09-20T13:04:03.441Z,7.07
2018-09-20T13:06:34.246Z,6.17
2018-09-20T13:09:07.437Z,7.97
2018-09-20T13:11:38.248Z,7.43
2018-09-20T13:14:09.294Z,10.93
2018-09-20T13:16:40.375Z,6.40
2018-09-20T13:19:11.832Z,5.93
2018-09-20T13:21:42.530Z,8.50
2018-09-20T13:24:13.253Z,7.67
2018-09-20T13:26:44.824Z,5.73
2018-09-20T13:29:15.569Z,8.53
2018-09-20T13:31:46.456Z,9.47
2018-09-20T13:34:17.165Z,7.90
2018-09-20T13:36:48.187Z,7.93
2018-09-20T13:39:18.829Z,6.20
2018-09-20T13:41:50.092Z,12.43
2018-09-20T13:44:21.214Z,9.07
2018-09-20T13:46:52.223Z,20.30
2018-09-20T13:49:22.816Z,7.23
2018-09-20T13:51:53.616Z,6.67
2018-09-20T13:54:24.294Z,5.40
2018-09-20T13:56:54.985Z,6.40
2018-09-20T13:59:25.772Z,9.07
2018-09-20T14:01:56.592Z,7.47
2018-09-20T14:04:27.651Z,7.10
2018-09-20T14:06:58.371Z,7.20
2018-09-20T14:09:29.314Z,6.30
2018-09-20T14:12:00.100Z,7.10
2018-09-20T14:14:31.170Z,7.77
2018-09-20T14:17:01.951Z,5.77
2018-09-20T14:19:35.734Z,5.47
2018-09-20T14:22:06.265Z,5.90
2018-09-20T14:24:36.915Z,10.70
2018-09-20T14:27:07.985Z,7.63
2018-09-20T14:29:38.698Z,7.53
2018-09-20T14:32:09.850Z,14.00
2018-09-20T14:34:40.912Z,8.57
2018-09-20T14:37:12.632Z,11.43
2018-09-20T14:39:43.229Z,6.73
2018-09-20T14:42:13.968Z,10.97
2018-09-20T14:44:45.408Z,9.20
2018-09-20T14:47:16.096Z,12.77
2018-09-20T14:49:46.899Z,7.50
2018-09-20T14:52:17.538Z,6.33
2018-09-20T14:54:48.500Z,6.73
2018-09-20T14:57:19.278Z,10.40
2018-09-20T14:59:50.398Z,6.97
2018-09-20T15:02:21.180Z,9.17
2018-09-20T15:04:51.950Z,9.90
2018-09-20T15:07:23.554Z,8.53
2018-09-20T15:09:54.311Z,10.40
2018-09-20T15:12:25.614Z,8.03
2018-09-20T15:14:56.369Z,13.07
2018-09-20T15:17:28.348Z,8.90
2018-09-20T15:19:59.014Z,13.13
2018-09-20T15:22:29.828Z,9.73
2018-09-20T15:25:01.273Z,11.67
2018-09-20T15:27:32.845Z,9.77
2018-09-20T15:30:04.840Z,8.63
2018-09-20T15:32:35.549Z,9.33
2018-09-20T15:35:06.476Z,9.77
2018-09-20T15:37:37.278Z,6.77
2018-09-20T15:40:08.595Z,12.77
2018-09-20T15:42:39.741Z,17.23
2018-09-20T15:45:11.452Z,11.33
2018-09-20T15:47:42.476Z,8.87
2018-09-20T15:50:13.272Z,12.87
2018-09-20T15:52:44.775Z,13.13
2018-09-20T15:55:15.757Z,11.23
2018-09-20T15:57:46.372Z,10.13
2018-09-20T16:00:17.254Z,9.53
2018-09-20T16:02:47.767Z,7.13
2018-09-20T16:05:18.474Z,12.57
2018-09-20T16:07:49.096Z,9.17
2018-09-20T16:10:20.521Z,7.93
2018-09-20T16:12:51.370Z,8.47
2018-09-20T16:15:22.540Z,8.17
2018-09-20T16:17:53.322Z,8.63
2018-09-20T16:20:24.051Z,9.17
2018-09-20T16:22:55.919Z,9.23
2018-09-20T16:25:26.506Z,12.80
2018-09-20T16:28:01.587Z,10.00
2018-09-20T16:36:04.362Z,12.23
2018-09-20T16:38:53.243Z,14.13
2018-09-20T16:41:32.563Z,9.27
2018-09-20T16:44:03.240Z,11.60
2018-09-20T16:46:33.971Z,14.90
2018-09-20T16:49:04.760Z,12.40
2018-09-20T16:51:35.758Z,8.63
2018-09-20T16:54:06.775Z,12.17
2018-09-20T16:56:37.336Z,10.53
2018-09-20T16:59:08.238Z,12.50
2018-09-20T17:01:39.929Z,8.83
2018-09-20T17:04:11.498Z,11.90
2018-09-20T17:06:44.801Z,10.20
2018-09-20T17:09:16.240Z,11.73
2018-09-20T17:11:47.546Z,9.00
2018-09-20T17:14:18.655Z,9.53
2018-09-20T17:16:49.476Z,11.50
2018-09-20T17:19:20.225Z,10.30
2018-09-20T17:21:51.399Z,13.30
2018-09-20T17:24:22.811Z,9.33
2018-09-20T17:26:56.499Z,11.87
2018-09-20T17:29:27.345Z,13.57
2018-09-20T17:31:58.823Z,12.80
2018-09-20T17:35:17.937Z,17.80
2018-09-20T17:37:50.632Z,13.47
2018-09-20T17:40:23.234Z,12.90
2018-09-20T17:42:57.684Z,13.37
2018-09-20T17:45:28.928Z,13.10
2018-09-20T17:47:59.983Z,17.50
2018-09-20T17:50:30.937Z,10.40
2018-09-20T17:53:02.689Z,13.73
2018-09-20T17:55:35.311Z,15.67
2018-09-20T17:58:06.243Z,12.50
2018-09-20T18:00:37.126Z,11.10
2018-09-20T18:03:08.060Z,14.13
2018-09-20T18:05:39.126Z,12.33
2018-09-20T18:08:10.354Z,13.83
2018-09-20T18:10:41.670Z,18.77
2018-09-20T18:13:14.235Z,16.20
2018-09-20T18:15:44.885Z,14.73
2018-09-20T18:18:17.693Z,13.00
2018-09-20T18:20:49.173Z,15.43
2018-09-20T18:23:20.260Z,15.50
2018-09-20T18:25:50.985Z,11.07
2018-09-20T18:28:22.038Z,10.83
2018-09-20T18:30:57.832Z,11.00
2018-09-20T18:33:28.680Z,11.83
2018-09-20T18:35:59.340Z,13.03
2018-09-20T18:38:29.941Z,22.77
2018-09-20T18:41:00.451Z,15.80
2018-09-20T18:43:31.207Z,19.27
2018-09-20T18:46:02.645Z,15.10
2018-09-20T18:48:33.511Z,18.17
2018-09-20T18:51:05.862Z,16.57
2018-09-20T18:53:36.625Z,14.47
2018-09-20T18:56:08.506Z,14.67
2018-09-20T18:58:39.926Z,15.90
2018-09-20T19:01:11.733Z,12.43
2018-09-20T19:03:43.197Z,12.03
2018-09-20T19:06:15.459Z,13.20
2018-09-20T19:08:56.040Z,15.80
2018-09-20T19:11:35.037Z,22.30
2018-09-20T19:14:10.276Z,13.73
2018-09-20T19:16:43.090Z,11.60
2018-09-20T19:19:14.709Z,11.67
2018-09-20T19:21:46.742Z,12.77
2018-09-20T19:24:18.941Z,15.33
2018-09-20T19:26:54.985Z,17.87
2018-09-20T19:29:28.972Z,19.17
2018-09-20T19:32:01.420Z,12.77
2018-09-20T19:34:35.163Z,12.20
2018-09-20T19:37:10.503Z,14.67
2018-09-20T19:39:44.397Z,13.83
2018-09-20T19:42:22.549Z,16.20
2018-09-20T19:44:55.786Z,14.73
2018-09-20T19:47:27.620Z,12.87
2018-09-20T19:49:59.607Z,13.73
2018-09-20T19:52:36.153Z,16.23
2018-09-20T19:55:12.681Z,15.53
2018-09-20T19:57:46.107Z,15.73
2018-09-20T20:00:19.465Z,17.03
2018-09-20T20:02:51.900Z,13.40
2018-09-20T20:05:23.981Z,15.03
2018-09-20T20:07:55.648Z,14.07
2018-09-20T20:10:26.863Z,14.90
2018-09-20T20:12:58.037Z,15.97
2018-09-20T20:15:29.791Z,13.37
2018-09-20T20:18:03.067Z,12.67
2018-09-20T20:20:35.282Z,17.50
2018-09-20T20:23:06.174Z,13.60
2018-09-20T20:25:37.222Z,13.47
2018-09-20T20:28:08.146Z,15.17
2018-09-20T20:30:38.892Z,13.03
2018-09-20T20:33:09.887Z,16.40
2018-09-20T20:35:41.783Z,14.43
2018-09-20T20:38:12.617Z,13.20
2018-09-20T20:40:43.437Z,12.67
2018-09-20T20:43:14.252Z,13.87
2018-09-20T20:45:45.235Z,13.13
2018-09-20T20:48:16.785Z,13.50
2018-09-20T20:50:47.612Z,12.83
2018-09-20T20:53:18.700Z,13.27
2018-09-20T20:55:49.369Z,14.20
2018-09-20T20:58:20.887Z,15.13
2018-09-20T21:00:51.643Z,20.30
2018-09-20T21:03:22.326Z,15.77
2018-09-20T21:05:53.023Z,14.20
2018-09-20T21:08:23.588Z,13.77
2018-09-20T21:10:54.182Z,14.07
2018-09-20T21:13:24.903Z,15.30
2018-09-20T21:15:57.896Z,15.40
2018-09-20T21:18:28.556Z,26.37
2018-09-20T21:20:59.489Z,25.77
2018-09-20T21:23:30.251Z,15.37
2018-09-20T21:26:01.256Z,14.57
2018-09-20T21:28:31.789Z,15.07
2018-09-20T21:31:02.615Z,17.77
2018-09-20T21:33:33.580Z,14.87
2018-09-20T21:36:04.833Z,19.87
2018-09-20T21:38:36.069Z,17.60
2018-09-20T21:41:06.691Z,19.53
2018-09-20T21:43:37.577Z,17.27
2018-09-20T21:46:08.132Z,16.30
2018-09-20T21:48:38.857Z,21.43
2018-09-20T21:51:10.909Z,18.07
2018-09-20T21:53:41.721Z,16.93
2018-09-20T21:56:12.326Z,17.23
2018-09-20T21:58:43.227Z,17.60
2018-09-20T22:01:15.408Z,14.37
2018-09-20T22:03:46.161Z,15.23
2018-09-20T22:06:16.917Z,15.10
2018-09-20T22:08:48.113Z,15.87
2018-09-20T22:11:18.788Z,19.03
2018-09-20T22:13:49.342Z,14.73
2018-09-20T22:16:20.441Z,15.07
2018-09-20T22:18:51.602Z,18.47
2018-09-20T22:21:22.855Z,14.23
2018-09-20T22:23:53.316Z,15.40
2018-09-20T22:26:23.820Z,15.53
2018-09-20T22:28:54.767Z,16.73
2018-09-20T22:31:25.948Z,15.87
2018-09-20T22:33:56.421Z,19.20
2018-09-20T22:36:27.347Z,14.60
2018-09-20T22:38:57.927Z,14.97
2018-09-20T22:41:28.514Z,15.33
2018-09-20T22:43:59.439Z,16.17
2018-09-20T22:46:30.176Z,16.73
2018-09-20T22:49:00.776Z,18.17
2018-09-20T22:51:31.497Z,16.80
2018-09-20T22:54:02.185Z,15.37
2018-09-20T22:56:32.574Z,16.33
2018-09-20T22:59:03.214Z,18.23
2018-09-20T23:01:33.566Z,16.23
2018-09-20T23:04:04.145Z,16.87
2018-09-20T23:06:34.732Z,15.30
2018-09-20T23:09:07.409Z,15.40
2018-09-20T23:11:38.076Z,15.73
2018-09-20T23:14:08.761Z,17.53
2018-09-20T23:16:39.227Z,16.03
2018-09-20T23:19:09.951Z,17.17
2018-09-20T23:21:40.442Z,16.13
2018-09-20T23:24:10.884Z,18.33
2018-09-20T23:26:41.547Z,18.60
2018-09-20T23:29:11.892Z,16.87
2018-09-20T23:31:42.412Z,16.70
2018-09-20T23:34:12.847Z,19.47
2018-09-20T23:36:43.596Z,18.83
2018-09-20T23:39:14.463Z,18.07
2018-09-20T23:41:44.908Z,17.60
2018-09-20T23:44:15.324Z,18.10
2018-09-20T23:46:45.864Z,19.70
2018-09-20T23:49:16.418Z,17.50
2018-09-20T23:51:46.931Z,19.13
2018-09-20T23:54:17.432Z,17.87
2018-09-20T23:56:48.115Z,19.20
2018-09-20T23:59:18.532Z,20.40
